Time;durP1;ratioP1;P1;durP2;ratioP2;P2;SDS_P1;SDS_P2;PMS_P1;PMS_P2;Temp;Humidity;BMP_temperature;BMP_pressure;BME280_temperature;BME280_humidity;BME280_pressure;Samples;Min_cycle;Max_cycle;Signal;HPM_P1;HPM_P2
2023/11/24 00:02:19;;;;;;;1.20;0.20;;;;;;;6.81;96.38;98600.67;110295;1276;23103;-77
2023/11/24 00:04:49;;;;;;;1.00;0.10;;;;;;;6.78;96.47;98613.16;110286;1272;22271;-77
2023/11/24 00:07:18;;;;;;;;;;;;;;;6.74;96.37;98618.83;110200;1277;22419;-78
2023/11/24 00:09:49;;;;;;;2.50;0.20;;;;;;;6.68;96.07;98629.16;110468;1269;22178;-77
2023/11/24 00:12:19;;;;;;;5.20;0.30;;;;;;;6.64;95.12;98629.57;110575;1273;22226;-77
2023/11/24 00:14:49;;;;;;;2.70;0.10;;;;;;;6.58;94.25;98639.35;110529;1273;22276;-77
2023/11/24 00:17:19;;;;;;;2.00;0.10;;;;;;;6.53;94.35;98640.47;110592;1273;22186;-77
2023/11/24 00:19:48;;;;;;;0.60;0.10;;;;;;;6.47;94.74;98639.56;110587;1266;22213;-77
2023/11/24 00:22:21;;;;;;;0.60;0.00;;;;;;;6.41;94.05;98635.06;110542;1273;22640;-77
2023/11/24 00:24:51;;;;;;;5.00;0.80;;;;;;;6.35;93.08;98623.77;110542;1268;22208;-77
2023/11/24 00:27:20;;;;;;;;;;;;;;;6.30;93.83;98612.98;110602;1273;22399;-77
2023/11/24 00:29:49;;;;;;;2.00;0.20;;;;;;;6.25;91.94;98608.85;110571;1272;22220;-78
2023/11/24 00:32:19;;;;;;;1.60;0.10;;;;;;;6.23;92.97;98595.69;110609;1270;22355;-77
2023/11/24 00:34:47;;;;;;;;;;;;;;;6.20;93.27;98593.08;110582;1273;22419;-77
2023/11/24 00:37:18;;;;;;;1.80;0.10;;;;;;;6.17;93.10;98595.98;110584;1261;22854;-77
2023/11/24 00:39:50;;;;;;;3.00;0.10;;;;;;;6.16;93.27;98592.10;110483;1273;22945;-78
2023/11/24 00:42:21;;;;;;;1.30;0.10;;;;;;;6.14;93.32;98580.95;110579;1269;22226;-78
2023/11/24 00:44:51;;;;;;;2.30;0.20;;;;;;;6.13;93.36;98579.67;110568;1273;22198;-77
2023/11/24 00:47:22;;;;;;;1.80;0.20;;;;;;;6.14;93.20;98581.19;110618;1272;22175;-78
2023/11/24 00:49:55;;;;;;;4.30;0.30;;;;;;;6.15;92.82;98578.93;110580;1270;23002;-78
2023/11/24 00:52:44;;;;;;;1.00;0.10;;;;;;;6.16;92.69;98584.39;110580;1273;22888;-78
2023/11/24 00:55:14;;;;;;;3.10;0.20;;;;;;;6.17;92.71;98569.48;110603;1272;23057;-78
2023/11/24 00:57:44;;;;;;;0.90;0.10;;;;;;;6.17;92.74;98580.61;110589;1272;22202;-78
2023/11/24 01:00:17;;;;;;;3.70;0.20;;;;;;;6.17;92.36;98593.60;110581;1273;22196;-77
2023/11/24 01:02:46;;;;;;;2.60;0.20;;;;;;;6.17;92.61;98597.39;110539;1273;22222;-78
2023/11/24 01:05:17;;;;;;;3.70;0.30;;;;;;;6.17;92.38;98598.59;110588;1269;22326;-77
2023/11/24 01:07:46;;;;;;;3.90;0.10;;;;;;;6.17;92.36;98600.02;110590;1273;22992;-78
2023/11/24 01:10:16;;;;;;;1.60;0.20;;;;;;;6.17;92.10;98611.25;110595;1273;22163;-77
2023/11/24 01:12:47;;;;;;;2.20;0.20;;;;;;;6.18;92.12;98605.47;110593;1267;22776;-77
2023/11/24 01:15:15;;;;;;;1.10;0.10;;;;;;;6.20;91.99;98610.05;110512;1272;22176;-78
2023/11/24 01:17:47;;;;;;;2.40;0.20;;;;;;;6.20;92.25;98593.55;110587;1272;22704;-77
2023/11/24 01:20:16;;;;;;;3.20;0.20;;;;;;;6.21;92.13;98571.48;110517;1270;22196;-78
2023/11/24 01:22:47;;;;;;;2.80;0.30;;;;;;;6.23;91.87;98564.29;110560;1273;22685;-77
2023/11/24 01:25:17;;;;;;;2.50;0.20;;;;;;;6.25;91.92;98565.02;110575;1273;23027;-78
2023/11/24 01:27:47;;;;;;;1.20;0.10;;;;;;;6.26;92.09;98555.77;110568;1273;22179;-78
2023/11/24 01:30:16;;;;;;;1.20;0.10;;;;;;;6.28;91.80;98563.34;110483;1273;22243;-77
2023/11/24 01:32:45;;;;;;;2.90;0.20;;;;;;;6.30;91.76;98552.02;110466;1259;22661;-77
2023/11/24 01:35:15;;;;;;;2.30;0.30;;;;;;;6.32;91.87;98546.39;110606;1273;23061;-77
2023/11/24 01:37:44;;;;;;;3.70;0.10;;;;;;;6.34;91.93;98569.60;110610;1269;22225;-77
2023/11/24 01:40:13;;;;;;;2.20;0.10;;;;;;;6.35;92.06;98583.05;110607;1272;22485;-78
2023/11/24 01:42:44;;;;;;;1.70;0.20;;;;;;;6.36;91.97;98577.21;110600;1266;22238;-77
2023/11/24 01:45:13;;;;;;;2.80;0.10;;;;;;;6.37;91.90;98570.52;110594;1273;22230;-77
2023/11/24 01:47:42;;;;;;;4.20;0.20;;;;;;;6.38;92.22;98564.58;110601;1273;22202;-77
2023/11/24 01:50:12;;;;;;;1.00;0.10;;;;;;;6.39;92.35;98570.25;110621;1266;22253;-77
2023/11/24 01:52:42;;;;;;;4.80;0.50;;;;;;;6.40;92.25;98565.77;110458;1273;22048;-77
2023/11/24 01:55:13;;;;;;;2.60;0.20;;;;;;;6.41;92.21;98549.03;110603;1273;22240;-77
2023/11/24 01:57:47;;;;;;;2.20;0.10;;;;;;;6.42;92.21;98568.45;110588;1273;22195;-77
2023/11/24 02:00:18;;;;;;;3.70;0.20;;;;;;;6.43;92.37;98564.98;110596;1273;22351;-78
2023/11/24 02:02:48;;;;;;;5.10;0.20;;;;;;;6.43;92.22;98573.65;110535;1273;22978;-76
2023/11/24 02:05:18;;;;;;;;;;;;;;;6.45;92.24;98581.83;110604;1273;22459;-77
2023/11/24 02:07:47;;;;;;;2.00;0.30;;;;;;;6.45;92.30;98569.48;110636;1270;23167;-77
2023/11/24 02:10:17;;;;;;;2.70;0.20;;;;;;;6.45;92.07;98556.98;110628;1272;22174;-77
2023/11/24 02:12:46;;;;;;;3.30;0.30;;;;;;;6.46;91.93;98545.05;110580;1266;22195;-77
2023/11/24 02:15:16;;;;;;;4.70;0.30;;;;;;;6.46;91.86;98546.31;110586;1273;22869;-77
2023/11/24 02:17:44;;;;;;;4.50;0.30;;;;;;;6.47;91.90;98561.34;110618;1271;22173;-76
2023/11/24 02:20:14;;;;;;;2.00;0.20;;;;;;;6.48;91.85;98571.38;110595;1273;22215;-77
2023/11/24 02:22:43;;;;;;;;;;;;;;;6.49;91.65;98570.13;110629;1272;22446;-77
2023/11/24 02:25:13;;;;;;;3.90;0.40;;;;;;;6.48;91.60;98563.41;110589;1273;22206;-77
2023/11/24 02:27:43;;;;;;;5.10;0.30;;;;;;;6.47;91.74;98553.38;110622;1273;23093;-77
2023/11/24 02:30:13;;;;;;;7.50;0.60;;;;;;;6.47;91.73;98552.38;110620;1273;22192;-77
2023/11/24 02:32:44;;;;;;;6.00;0.70;;;;;;;6.46;91.65;98554.23;110631;1272;22228;-77
2023/11/24 02:35:14;;;;;;;3.80;0.30;;;;;;;6.47;91.71;98553.42;110498;1273;22695;-77
2023/11/24 02:37:43;;;;;;;4.30;0.60;;;;;;;6.47;91.77;98529.34;110472;1273;23373;-77
2023/11/24 02:40:15;;;;;;;3.80;0.40;;;;;;;6.47;91.65;98512.40;110617;1273;22226;-76
2023/11/24 02:42:44;;;;;;;9.40;0.70;;;;;;;6.46;91.56;98521.77;110589;1273;22426;-77
2023/11/24 02:45:33;;;;;;;6.40;0.60;;;;;;;6.47;91.68;98527.77;110554;1272;23011;-77
2023/11/24 02:48:25;;;;;;;10.50;0.50;;;;;;;6.47;91.72;98546.77;110568;1266;22174;-77
2023/11/24 02:50:56;;;;;;;2.40;0.10;;;;;;;6.37;88.74;98550.62;110557;1272;22670;-78
2023/11/24 02:53:46;;;;;;;4.50;0.20;;;;;;;6.10;89.15;98536.21;110468;1272;22256;-78
2023/11/24 02:56:15;;;;;;;1.60;0.20;;;;;;;5.75;92.94;98580.65;110613;1273;22175;-78
2023/11/24 02:58:44;;;;;;;2.10;0.30;;;;;;;5.54;89.12;98544.46;110613;1270;22238;-77
2023/11/24 03:01:15;;;;;;;3.90;0.20;;;;;;;5.41;86.56;98523.37;110589;1273;22804;-77
2023/11/24 03:03:44;;;;;;;2.70;0.30;;;;;;;5.31;87.37;98520.64;110567;1262;22247;-77
2023/11/24 03:06:13;;;;;;;4.30;0.40;;;;;;;5.22;88.90;98531.35;110607;1269;22381;-77
2023/11/24 03:08:43;;;;;;;4.80;0.20;;;;;;;5.19;91.01;98546.10;110614;1273;22422;-77
2023/11/24 03:11:12;;;;;;;3.10;0.40;;;;;;;5.15;92.68;98569.88;110642;1272;22950;-77
2023/11/24 03:13:45;;;;;;;1.90;0.10;;;;;;;5.10;93.52;98578.86;110637;1273;22233;-77
2023/11/24 03:16:15;;;;;;;3.40;0.40;;;;;;;5.05;93.92;98583.13;110613;1273;22341;-77
2023/11/24 03:18:44;;;;;;;;;;;;;;;5.01;94.13;98580.39;110595;1269;22502;-76
2023/11/24 03:21:33;;;;;;;3.60;0.30;;;;;;;4.95;94.29;98566.89;110616;1272;22272;-76
2023/11/24 03:24:03;;;;;;;3.90;0.50;;;;;;;4.91;94.18;98562.30;110579;1273;22189;-77
2023/11/24 03:26:33;;;;;;;3.10;0.50;;;;;;;4.87;94.19;98564.16;110605;1266;22395;-77
2023/11/24 03:29:03;;;;;;;2.10;0.30;;;;;;;4.82;94.25;98556.35;110468;1262;22165;-77
2023/11/24 03:31:32;;;;;;;2.90;0.20;;;;;;;4.77;94.47;98558.63;110570;1272;22148;-77
2023/11/24 03:34:02;;;;;;;6.30;0.30;;;;;;;4.73;94.69;98562.23;110582;1269;22877;-78
2023/11/24 03:36:31;;;;;;;3.90;0.30;;;;;;;4.69;94.64;98561.97;110578;1273;22376;-77
2023/11/24 03:39:00;;;;;;;2.20;0.20;;;;;;;4.64;94.66;98554.57;110629;1273;23122;-77
2023/11/24 03:41:29;;;;;;;3.90;0.20;;;;;;;4.62;94.87;98554.99;110647;1269;22276;-77
2023/11/24 03:43:59;;;;;;;7.10;0.30;;;;;;;4.60;94.94;98554.25;110500;1273;22195;-77
2023/11/24 03:46:29;;;;;;;5.20;0.30;;;;;;;4.57;94.91;98555.70;110598;1273;22332;-77
2023/11/24 03:48:58;;;;;;;4.40;0.30;;;;;;;4.54;95.00;98560.48;110610;1273;22203;-76
2023/11/24 03:51:28;;;;;;;4.00;0.20;;;;;;;4.53;95.05;98559.07;110614;1272;22333;-76
2023/11/24 03:53:57;;;;;;;4.10;0.40;;;;;;;4.52;95.01;98558.55;110507;1268;22278;-77
2023/11/24 03:56:28;;;;;;;5.20;0.40;;;;;;;4.52;94.98;98556.34;110633;1266;22342;-77
2023/11/24 03:58:57;;;;;;;3.90;0.30;;;;;;;4.52;95.02;98552.88;110591;1273;22206;-76
2023/11/24 04:01:28;;;;;;;7.50;0.90;;;;;;;4.52;94.99;98555.14;110587;1273;22277;-77
2023/11/24 04:03:57;;;;;;;;;;;;;;;4.52;94.89;98553.18;110622;1273;22443;-77
2023/11/24 04:06:26;;;;;;;6.60;0.40;;;;;;;4.50;94.78;98547.71;110586;1273;22230;-76
2023/11/24 04:08:55;;;;;;;5.30;0.60;;;;;;;4.48;94.71;98551.74;110648;1273;22202;-76
2023/11/24 04:11:25;;;;;;;8.90;0.50;;;;;;;4.46;94.62;98549.42;110624;1266;22352;-77
2023/11/24 04:13:54;;;;;;;8.20;0.60;;;;;;;4.45;94.56;98552.66;110613;1273;23157;-76
2023/11/24 04:16:23;;;;;;;4.80;0.50;;;;;;;4.44;94.71;98553.79;110489;1266;22225;-77
2023/11/24 04:18:53;;;;;;;7.20;0.40;;;;;;;4.43;94.81;98552.37;110618;1273;22268;-75
2023/11/24 04:21:21;;;;;;;4.80;0.40;;;;;;;4.42;94.94;98542.86;110609;1273;22888;-78
2023/11/24 04:23:51;;;;;;;7.90;0.40;;;;;;;4.41;95.18;98546.00;110533;1273;22217;-76
2023/11/24 04:26:20;;;;;;;9.20;1.10;;;;;;;4.39;95.17;98544.17;110615;1267;22247;-76
2023/11/24 04:28:49;;;;;;;10.00;0.70;;;;;;;4.38;95.35;98541.44;110622;1272;23047;-76
2023/11/24 04:31:19;;;;;;;6.20;0.60;;;;;;;4.36;95.22;98535.98;110596;1272;22177;-76
2023/11/24 04:33:47;;;;;;;;;;;;;;;4.34;95.22;98534.79;110597;1273;22435;-76
2023/11/24 04:36:17;;;;;;;3.00;0.40;;;;;;;4.31;95.34;98531.33;110618;1273;22222;-76
2023/11/24 04:38:46;;;;;;;5.30;0.40;;;;;;;4.27;95.42;98521.17;110638;1269;22063;-76
2023/11/24 04:41:15;;;;;;;8.80;0.60;;;;;;;4.26;95.56;98523.07;110602;1273;22131;-76
2023/11/24 04:43:45;;;;;;;11.90;0.60;;;;;;;4.25;95.57;98524.95;110605;1273;22279;-76
2023/11/24 04:46:14;;;;;;;8.30;0.60;;;;;;;4.24;95.59;98526.35;110627;1266;22207;-76
2023/11/24 04:48:42;;;;;;;9.70;0.90;;;;;;;4.22;95.80;98526.50;110601;1266;23092;-77
2023/11/24 04:51:12;;;;;;;6.90;0.60;;;;;;;4.20;95.90;98528.44;110581;1263;22350;-77
2023/11/24 04:53:41;;;;;;;7.30;0.50;;;;;;;4.19;95.85;98525.71;110504;1269;23583;-77
2023/11/24 04:56:10;;;;;;;7.50;0.70;;;;;;;4.17;95.75;98520.61;110398;1273;22177;-77
2023/11/24 04:58:40;;;;;;;5.40;0.40;;;;;;;4.16;95.80;98517.77;110598;1272;22445;-77
2023/11/24 05:01:31;;;;;;;3.80;0.60;;;;;;;4.15;95.87;98520.27;110545;1266;22411;-77
2023/11/24 05:04:34;;;;;;;11.00;0.90;;;;;;;4.14;95.93;98518.54;110372;1269;22963;-77
2023/11/24 05:07:04;;;;;;;17.40;1.10;;;;;;;4.14;95.84;98514.27;110444;1273;22213;-79
2023/11/24 05:09:43;;;;;;;11.80;0.80;;;;;;;4.14;95.73;98517.68;110576;1272;22465;-78
2023/11/24 05:12:29;;;;;;;11.80;0.70;;;;;;;4.13;95.64;98516.62;110548;1266;23009;-76
2023/11/24 05:15:08;;;;;;;12.00;0.80;;;;;;;4.11;95.49;98515.68;110447;1272;22235;-76
2023/11/24 05:18:15;;;;;;;7.00;0.50;;;;;;;4.08;95.26;98518.71;110544;1270;22252;-76
2023/11/24 05:21:05;;;;;;;7.20;1.00;;;;;;;4.07;95.18;98523.79;109795;1266;22533;-79
2023/11/24 05:23:34;;;;;;;16.10;1.40;;;;;;;4.05;95.05;98531.70;107810;1272;22524;-79
2023/11/24 05:26:04;;;;;;;10.10;0.90;;;;;;;4.05;95.03;98533.21;110569;1271;22195;-79
2023/11/24 05:28:33;;;;;;;16.70;0.90;;;;;;;4.04;94.68;98538.20;110597;1273;23060;-78
2023/11/24 05:31:03;;;;;;;21.70;2.20;;;;;;;4.04;94.56;98537.75;110570;1273;22338;-78
2023/11/24 05:33:32;;;;;;;12.60;1.20;;;;;;;4.03;94.10;98533.17;110580;1273;22925;-78
2023/11/24 05:36:06;;;;;;;11.20;0.90;;;;;;;4.04;94.04;98542.64;110627;1272;22212;-79
2023/11/24 05:38:37;;;;;;;18.00;1.80;;;;;;;4.03;93.85;98543.61;110618;1267;22209;-79
2023/11/24 05:41:07;;;;;;;13.60;1.30;;;;;;;4.03;93.43;98545.63;110630;1273;22388;-77
2023/11/24 05:43:36;;;;;;;11.20;0.80;;;;;;;4.03;93.13;98549.54;110588;1270;23647;-77
2023/11/24 05:46:06;;;;;;;11.50;0.80;;;;;;;4.03;93.06;98551.34;110617;1272;22218;-78
2023/11/24 05:48:35;;;;;;;8.30;0.80;;;;;;;4.04;92.85;98556.92;110586;1272;23148;-77
2023/11/24 05:51:05;;;;;;;11.60;0.60;;;;;;;4.04;92.78;98562.97;110617;1272;22208;-79
2023/11/24 05:53:34;;;;;;;5.00;0.50;;;;;;;4.04;92.67;98572.11;110640;1273;23120;-78
2023/11/24 05:56:06;;;;;;;5.10;0.50;;;;;;;4.04;92.27;98570.58;110580;1273;22228;-78
2023/11/24 05:58:36;;;;;;;10.10;0.60;;;;;;;4.03;92.03;98578.46;110557;1270;22194;-78
2023/11/24 06:01:06;;;;;;;7.70;0.50;;;;;;;4.03;91.20;98588.14;110560;1268;23331;-78
2023/11/24 06:03:34;;;;;;;13.30;0.80;;;;;;;4.02;91.36;98590.08;110570;1270;22418;-77
2023/11/24 06:06:05;;;;;;;7.40;0.60;;;;;;;4.00;91.18;98586.33;110623;1273;22677;-78
2023/11/24 06:08:34;;;;;;;7.30;0.40;;;;;;;3.97;91.06;98587.83;110621;1273;22164;-78
2023/11/24 06:11:04;;;;;;;7.90;0.40;;;;;;;3.94;90.56;98587.18;110622;1273;22164;-78
2023/11/24 06:13:32;;;;;;;4.00;0.40;;;;;;;3.91;90.33;98578.64;110622;1263;22344;-78
2023/11/24 06:16:01;;;;;;;4.40;0.30;;;;;;;3.89;90.51;98577.54;110622;1269;22618;-79
2023/11/24 06:18:30;;;;;;;8.30;0.70;;;;;;;3.86;90.12;98580.11;110648;1273;22322;-79
2023/11/24 06:20:59;;;;;;;8.30;0.70;;;;;;;3.84;90.41;98580.16;110622;1272;22164;-78
2023/11/24 06:23:28;;;;;;;5.90;0.30;;;;;;;3.81;90.27;98583.77;110630;1273;22324;-77
2023/11/24 06:25:58;;;;;;;5.00;0.20;;;;;;;3.79;89.99;98576.86;110607;1273;22238;-78
2023/11/24 06:28:27;;;;;;;5.80;0.40;;;;;;;3.77;90.29;98579.23;110626;1273;22212;-78
2023/11/24 06:30:55;;;;;;;7.10;0.70;;;;;;;3.75;90.35;98580.90;110619;1273;22277;-78
2023/11/24 06:33:25;;;;;;;5.10;0.40;;;;;;;3.73;90.22;98584.48;110570;1273;22181;-79
2023/11/24 06:35:55;;;;;;;2.10;0.20;;;;;;;3.70;90.42;98585.13;110584;1273;22144;-78
2023/11/24 06:38:25;;;;;;;6.40;0.20;;;;;;;3.69;90.30;98583.08;110612;1273;22211;-80
2023/11/24 06:40:54;;;;;;;5.00;0.40;;;;;;;3.65;90.47;98582.06;110540;1273;22385;-78
2023/11/24 06:43:23;;;;;;;7.50;0.50;;;;;;;3.63;90.60;98590.35;110608;1273;22255;-78
2023/11/24 06:45:52;;;;;;;5.90;0.30;;;;;;;3.61;90.46;98588.45;110595;1273;22472;-77
2023/11/24 06:48:20;;;;;;;5.80;0.40;;;;;;;3.58;90.80;98590.34;110484;1272;22998;-77
2023/11/24 06:50:50;;;;;;;5.80;0.50;;;;;;;3.56;90.94;98593.52;110636;1273;22235;-78
2023/11/24 06:53:18;;;;;;;6.90;0.50;;;;;;;3.53;90.94;98589.09;110575;1273;22807;-78
2023/11/24 06:55:47;;;;;;;6.30;0.40;;;;;;;3.52;91.02;98587.96;110625;1271;22409;-79
2023/11/24 06:58:16;;;;;;;6.90;0.50;;;;;;;3.51;90.97;98587.77;110617;1273;22390;-78
2023/11/24 07:00:44;;;;;;;6.10;0.40;;;;;;;3.51;91.07;98585.58;110485;1267;22199;-78
2023/11/24 07:03:13;;;;;;;5.30;0.80;;;;;;;3.49;91.16;98579.89;110560;1273;22158;-79
2023/11/24 07:05:42;;;;;;;11.50;0.70;;;;;;;3.48;91.28;98582.77;110572;1273;22337;-79
2023/11/24 07:08:13;;;;;;;9.90;0.50;;;;;;;3.48;91.21;98579.25;110567;1273;22269;-78
2023/11/24 07:10:42;;;;;;;4.10;0.40;;;;;;;3.47;91.36;98579.54;110565;1267;22185;-78
2023/11/24 07:13:11;;;;;;;5.80;0.40;;;;;;;3.47;91.48;98574.42;110541;1272;22207;-79
2023/11/24 07:15:40;;;;;;;7.80;0.60;;;;;;;3.47;91.57;98574.89;110593;1273;22234;-79
2023/11/24 07:18:09;;;;;;;6.10;0.90;;;;;;;3.47;91.66;98565.29;110599;1273;22224;-79
2023/11/24 07:20:38;;;;;;;12.50;0.70;;;;;;;3.46;91.79;98560.81;110581;1273;22204;-78
2023/11/24 07:23:07;;;;;;;7.00;0.50;;;;;;;3.46;91.91;98562.50;110596;1272;22720;-79
2023/11/24 07:25:37;;;;;;;7.80;0.80;;;;;;;3.44;92.08;98559.02;110622;1270;22237;-78
2023/11/24 07:28:07;;;;;;;10.50;0.60;;;;;;;3.44;92.18;98556.75;110600;1270;22194;-78
2023/11/24 07:30:37;;;;;;;7.60;0.80;;;;;;;3.43;92.27;98551.75;110619;1269;22188;-78
2023/11/24 07:33:06;;;;;;;6.60;0.50;;;;;;;3.41;92.26;98544.86;110582;1272;22518;-78
2023/11/24 07:35:35;;;;;;;11.80;0.80;;;;;;;3.39;92.33;98544.38;110609;1273;22231;-79
2023/11/24 07:38:04;;;;;;;10.00;0.70;;;;;;;3.38;92.49;98528.75;110625;1273;22237;-78
2023/11/24 07:40:32;;;;;;;3.20;0.70;;;;;;;3.39;92.53;98527.95;110621;1273;22148;-79
2023/11/24 07:43:02;;;;;;;7.50;0.90;;;;;;;3.39;92.55;98519.41;110618;1273;22166;-79
2023/11/24 07:45:30;;;;;;;7.40;1.20;;;;;;;3.40;92.72;98513.77;110604;1267;23052;-78
2023/11/24 07:47:59;;;;;;;7.10;0.60;;;;;;;3.41;92.90;98521.43;110644;1273;22180;-78
2023/11/24 07:50:28;;;;;;;12.00;1.00;;;;;;;3.44;93.11;98520.56;110584;1273;22623;-78
2023/11/24 07:52:57;;;;;;;14.60;1.00;;;;;;;3.51;93.29;98522.04;110632;1264;22304;-79
2023/11/24 07:55:25;;;;;;;13.20;1.30;;;;;;;3.58;93.41;98529.78;110634;1267;22148;-78
2023/11/24 07:57:54;;;;;;;10.70;1.20;;;;;;;3.65;93.37;98524.20;110606;1273;22207;-78
2023/11/24 08:00:24;;;;;;;9.30;1.00;;;;;;;3.72;93.32;98521.16;110606;1273;22214;-78
2023/11/24 08:02:52;;;;;;;12.90;0.80;;;;;;;3.77;93.06;98523.48;110585;1273;21806;-78
2023/11/24 08:05:21;;;;;;;15.10;1.00;;;;;;;3.82;92.73;98513.44;110587;1273;22220;-79
2023/11/24 08:07:50;;;;;;;18.10;0.90;;;;;;;3.88;92.54;98518.25;110657;1270;22197;-79
2023/11/24 08:10:18;;;;;;;12.70;1.50;;;;;;;3.95;92.22;98529.16;106479;1273;5409950;-81
2023/11/24 08:12:47;;;;;;;10.30;0.60;;;;;;;3.96;91.26;98521.76;110589;1267;22233;-79
2023/11/24 08:15:16;;;;;;;2.40;0.20;;;;;;;3.88;91.43;98497.98;110618;1264;22177;-78
2023/11/24 08:17:45;;;;;;;3.70;0.40;;;;;;;3.78;91.90;98492.13;110623;1260;22868;-79
2023/11/24 08:20:14;;;;;;;4.50;0.50;;;;;;;3.72;92.28;98511.70;110618;1273;22417;-79
2023/11/24 08:22:43;;;;;;;2.40;0.20;;;;;;;3.64;92.64;98517.31;110647;1273;22164;-78
2023/11/24 08:25:12;;;;;;;8.70;1.20;;;;;;;3.56;92.61;98520.67;110637;1263;22151;-80
2023/11/24 08:27:41;;;;;;;6.40;0.60;;;;;;;3.48;92.60;98525.18;110593;1273;22960;-79
2023/11/24 08:30:12;;;;;;;4.20;0.30;;;;;;;3.42;92.89;98530.63;110492;1273;23366;-79
2023/11/24 08:32:43;;;;;;;7.20;0.60;;;;;;;3.38;93.32;98531.77;110642;1273;23358;-79
2023/11/24 08:35:12;;;;;;;3.80;0.40;;;;;;;3.37;93.49;98530.70;110622;1273;22191;-79
2023/11/24 08:37:41;;;;;;;5.30;0.50;;;;;;;3.35;93.66;98525.38;110590;1267;22995;-79
2023/11/24 08:40:15;;;;;;;6.20;0.90;;;;;;;3.33;93.68;98519.84;110607;1273;22188;-80
2023/11/24 08:42:44;;;;;;;3.30;0.50;;;;;;;3.30;93.88;98521.37;110631;1273;22153;-78
2023/11/24 08:45:14;;;;;;;3.30;0.60;;;;;;;3.29;93.81;98511.81;110619;1273;22168;-79
2023/11/24 08:47:43;;;;;;;3.90;0.40;;;;;;;3.27;93.84;98510.63;110574;1273;22224;-79
2023/11/24 08:50:13;;;;;;;8.50;0.90;;;;;;;3.26;93.96;98500.85;110548;1273;22209;-81
2023/11/24 08:52:42;;;;;;;4.60;0.60;;;;;;;3.26;94.39;98502.83;110611;1273;22097;-78
2023/11/24 08:55:10;;;;;;;2.90;0.60;;;;;;;3.28;94.57;98502.93;110630;1272;22877;-78
2023/11/24 08:57:39;;;;;;;8.60;0.60;;;;;;;3.33;94.85;98505.55;110629;1273;22164;-79
2023/11/24 09:00:14;;;;;;;4.20;0.40;;;;;;;3.39;95.02;98502.15;110589;1270;22166;-79
2023/11/24 09:02:43;;;;;;;10.70;1.20;;;;;;;3.43;94.83;98501.02;110629;1269;22352;-78
2023/11/24 09:05:12;;;;;;;7.20;0.60;;;;;;;3.45;94.74;98499.09;110620;1273;22165;-78
2023/11/24 09:07:42;;;;;;;6.20;0.80;;;;;;;3.47;94.78;98503.39;110605;1267;22187;-78
2023/11/24 09:10:12;;;;;;;10.30;0.90;;;;;;;3.49;94.90;98496.32;110610;1272;22184;-79
2023/11/24 09:12:40;;;;;;;7.00;1.00;;;;;;;3.54;94.97;98495.65;110614;1269;22185;-79
2023/11/24 09:15:11;;;;;;;6.50;1.00;;;;;;;3.60;95.26;98493.80;110622;1273;22220;-78
2023/11/24 09:17:38;;;;;;;;;;;;;;;3.68;95.40;98501.23;110659;1272;23220;-79
2023/11/24 09:20:11;;;;;;;6.50;0.80;;;;;;;3.76;95.47;98501.78;110603;1273;22196;-79
2023/11/24 09:22:40;;;;;;;12.10;1.20;;;;;;;3.85;95.41;98501.20;110589;1273;22351;-78
2023/11/24 09:25:09;;;;;;;9.80;1.00;;;;;;;3.93;95.35;98494.15;110612;1273;22275;-79
2023/11/24 09:27:38;;;;;;;12.00;0.80;;;;;;;4.01;95.00;98493.08;110608;1262;23071;-78
2023/11/24 09:30:10;;;;;;;4.70;0.60;;;;;;;4.08;94.56;98493.10;110566;1269;23014;-79
2023/11/24 09:32:41;;;;;;;7.70;1.00;;;;;;;4.14;94.54;98491.04;110559;1269;22183;-78
2023/11/24 09:35:10;;;;;;;10.40;1.10;;;;;;;4.20;93.05;98497.69;110607;1273;23007;-79
2023/11/24 09:37:39;;;;;;;8.50;0.80;;;;;;;4.23;92.78;98501.31;110552;1267;22384;-80
2023/11/24 09:40:16;;;;;;;9.60;0.90;;;;;;;4.26;92.70;98502.82;108194;1269;22978;-79
2023/11/24 09:42:47;;;;;;;8.30;0.70;;;;;;;4.28;92.09;98504.36;110599;1273;22190;-79
2023/11/24 09:45:19;;;;;;;9.60;0.60;;;;;;;4.29;91.71;98499.85;110616;1267;22989;-78
2023/11/24 09:47:49;;;;;;;8.00;1.50;;;;;;;4.32;92.09;98494.08;110652;1266;22162;-78
2023/11/24 09:50:23;;;;;;;8.30;0.50;;;;;;;4.35;91.18;98486.98;110642;1263;22181;-78
2023/11/24 09:52:54;;;;;;;6.90;0.70;;;;;;;4.37;90.57;98485.41;110584;1272;22872;-78
2023/11/24 09:55:23;;;;;;;7.50;0.70;;;;;;;4.40;90.95;98478.27;110635;1266;22205;-78
2023/11/24 09:57:52;;;;;;;7.00;0.70;;;;;;;4.41;91.00;98471.86;110603;1273;22247;-78
2023/11/24 10:00:21;;;;;;;8.30;0.60;;;;;;;4.43;90.90;98469.48;110579;1273;22171;-77
2023/11/24 10:02:52;;;;;;;10.00;0.80;;;;;;;4.43;90.45;98474.36;110621;1273;22219;-79
2023/11/24 10:05:21;;;;;;;9.80;0.50;;;;;;;4.43;89.69;98471.40;110525;1273;22190;-79
2023/11/24 10:07:51;;;;;;;6.90;0.50;;;;;;;4.42;89.46;98466.61;110633;1273;22221;-78
2023/11/24 10:10:24;;;;;;;8.50;0.50;;;;;;;4.42;89.52;98466.46;110551;1273;22250;-79
2023/11/24 10:12:53;;;;;;;6.40;0.50;;;;;;;4.42;89.58;98461.09;110625;1273;22178;-78
2023/11/24 10:15:23;;;;;;;7.20;0.60;;;;;;;4.42;89.67;98453.25;110570;1273;22597;-78
2023/11/24 10:17:52;;;;;;;8.70;0.80;;;;;;;4.42;88.54;98451.94;110448;1270;22216;-80
2023/11/24 10:20:22;;;;;;;6.00;0.50;;;;;;;4.41;88.73;98444.88;110582;1273;22268;-78
2023/11/24 10:22:52;;;;;;;5.00;0.70;;;;;;;4.41;88.53;98445.17;110539;1273;22173;-78
2023/11/24 10:25:24;;;;;;;4.80;0.50;;;;;;;4.42;87.90;98447.36;110598;1273;22161;-78
2023/11/24 10:27:58;;;;;;;6.70;1.30;;;;;;;4.42;88.06;98439.13;110619;1273;22166;-79
2023/11/24 10:30:27;;;;;;;4.50;0.60;;;;;;;4.43;88.16;98439.80;110610;1270;22164;-78
2023/11/24 10:32:58;;;;;;;11.60;0.70;;;;;;;4.44;88.00;98437.27;110618;1273;22156;-79
2023/11/24 10:35:27;;;;;;;7.30;0.40;;;;;;;4.46;87.59;98437.34;110615;1273;23096;-78
2023/11/24 10:37:58;;;;;;;8.90;0.80;;;;;;;4.46;87.24;98433.21;110642;1273;22173;-79
2023/11/24 10:40:46;;;;;;;7.70;0.30;;;;;;;4.46;87.03;98433.96;110617;1273;22238;-78
2023/11/24 10:43:15;;;;;;;6.30;0.40;;;;;;;4.45;87.33;98428.58;110547;1273;22445;-78
2023/11/24 10:45:51;;;;;;;5.30;0.40;;;;;;;4.43;86.84;98427.14;110658;1266;22226;-78
2023/11/24 10:48:27;;;;;;;5.30;0.50;;;;;;;4.43;86.49;98422.06;110570;1273;22158;-78
2023/11/24 10:51:01;;;;;;;4.50;0.40;;;;;;;4.42;85.34;98423.77;110586;1273;22449;-78
2023/11/24 10:53:35;;;;;;;5.90;0.40;;;;;;;4.41;85.74;98419.61;110578;1273;22206;-78
2023/11/24 10:56:07;;;;;;;6.60;0.60;;;;;;;4.42;85.66;98412.30;110554;1273;22225;-79
2023/11/24 10:58:36;;;;;;;7.50;0.30;;;;;;;4.43;86.05;98406.65;110610;1273;23299;-80
2023/11/24 11:01:06;;;;;;;5.60;0.50;;;;;;;4.46;86.01;98395.98;110605;1270;22452;-78
2023/11/24 11:03:35;;;;;;;;;;;;;;;4.49;86.00;98397.03;110622;1267;23196;-78
2023/11/24 11:06:10;;;;;;;6.60;0.60;;;;;;;4.52;86.03;98393.86;110601;1267;22390;-80
2023/11/24 11:08:56;;;;;;;9.00;0.90;;;;;;;4.56;86.21;98389.34;110607;1273;22337;-78
2023/11/24 11:12:13;;;;;;;6.00;0.40;;;;;;;4.61;86.28;98389.46;110592;1273;23126;-81
2023/11/24 11:14:42;;;;;;;9.10;0.60;;;;;;;4.64;85.13;98381.89;109968;1277;22213;-79
2023/11/24 11:17:20;;;;;;;11.50;1.50;;;;;;;4.64;85.61;98383.66;109988;1280;22538;-78
2023/11/24 11:19:59;;;;;;;7.00;0.70;;;;;;;4.64;85.58;98382.50;109950;1280;22243;-79
2023/11/24 11:22:59;;;;;;;10.10;1.10;;;;;;;4.64;85.62;98383.30;109972;1280;22870;-78
2023/11/24 11:25:46;;;;;;;6.80;0.50;;;;;;;4.64;86.22;98386.63;109989;1279;22218;-78
2023/11/24 11:28:46;;;;;;;13.30;0.70;;;;;;;4.64;86.70;98380.05;109976;1276;23002;-79
2023/11/24 11:31:37;;;;;;;5.80;1.10;;;;;;;4.62;86.85;98379.52;110017;1274;23188;-79
2023/11/24 11:34:14;;;;;;;7.80;0.50;;;;;;;4.60;86.42;98383.30;109966;1277;23093;-79
2023/11/24 11:37:05;;;;;;;8.50;0.70;;;;;;;4.56;86.48;98378.67;109972;1280;22246;-79
2023/11/24 11:39:47;;;;;;;;;;;;;;;4.51;86.90;98375.77;110001;1274;23241;-78
2023/11/24 11:42:17;;;;;;;9.90;0.70;;;;;;;4.49;87.06;98369.84;110015;1280;22833;-78
2023/11/24 11:44:56;;;;;;;10.00;0.80;;;;;;;4.50;86.80;98361.96;109996;1273;22424;-78
2023/11/24 11:47:26;;;;;;;7.00;0.80;;;;;;;4.49;86.96;98354.98;110001;1280;22966;-78
2023/11/24 11:49:56;;;;;;;9.70;1.30;;;;;;;4.50;87.20;98352.23;109987;1275;22258;-79
2023/11/24 11:52:26;;;;;;;9.00;0.90;;;;;;;4.49;86.04;98351.26;110593;1266;23136;-80
2023/11/24 11:54:56;;;;;;;7.00;1.40;;;;;;;4.45;85.41;98357.00;110592;1273;22172;-77